createdAt,value
2022-10-05T00:00:55.128Z,16.20
2022-10-05T00:03:33.797Z,21.73
2022-10-05T00:06:07.736Z,15.13
2022-10-05T00:11:18.916Z,21.20
2022-10-05T00:13:52.965Z,19.90
2022-10-05T00:16:28.411Z,20.05
2022-10-05T00:19:01.906Z,24.73
2022-10-05T00:21:35.453Z,20.17
2022-10-05T00:24:11.725Z,20.67
2022-10-05T00:26:52.881Z,22.83
2022-10-05T00:29:32.308Z,23.83
2022-10-05T00:32:06.003Z,18.27
2022-10-05T00:34:47.854Z,23.15
2022-10-05T00:37:21.506Z,21.85
2022-10-05T00:40:00.189Z,25.70
2022-10-05T00:42:48.851Z,26.90
2022-10-05T00:45:27.617Z,28.17
2022-10-05T00:48:09.752Z,26.80
2022-10-05T00:50:59.898Z,22.95
2022-10-05T00:53:45.418Z,25.02
2022-10-05T00:56:38.352Z,25.48
2022-10-05T00:59:27.157Z,27.10
2022-10-05T01:02:09.816Z,24.80
2022-10-05T01:04:50.399Z,26.80
2022-10-05T01:07:33.964Z,27.25
2022-10-05T01:10:16.049Z,29.50
2022-10-05T01:13:00.485Z,28.17
2022-10-05T01:15:40.623Z,25.30
2022-10-05T01:18:19.046Z,30.00
2022-10-05T01:21:01.108Z,29.98
2022-10-05T01:24:21.973Z,28.90
2022-10-05T01:27:16.943Z,28.85
2022-10-05T01:29:58.171Z,27.00
2022-10-05T01:32:37.119Z,30.85
2022-10-05T01:35:21.328Z,28.30
2022-10-05T01:38:03.751Z,28.27
2022-10-05T01:40:42.723Z,26.48
2022-10-05T01:43:25.123Z,27.88
2022-10-05T01:46:08.305Z,29.48
2022-10-05T01:48:49.964Z,26.80
2022-10-05T01:51:34.790Z,29.98
2022-10-05T01:54:20.043Z,24.25
2022-10-05T01:57:03.570Z,26.05
2022-10-05T01:59:52.198Z,30.48
2022-10-05T02:02:30.331Z,27.65
2022-10-05T02:05:11.993Z,27.27
2022-10-05T02:07:52.629Z,27.80
2022-10-05T02:10:35.305Z,26.48
2022-10-05T02:13:15.794Z,27.60
2022-10-05T02:15:55.345Z,30.75
2022-10-05T02:21:25.049Z,22.98
2022-10-05T02:24:05.552Z,23.23
2022-10-05T02:26:40.773Z,30.27
2022-10-05T02:29:21.486Z,21.40
2022-10-05T02:32:00.377Z,24.00
2022-10-05T02:34:39.741Z,30.48
2022-10-05T02:37:34.492Z,20.80
2022-10-05T02:40:19.607Z,21.50
2022-10-05T02:43:02.004Z,24.52
2022-10-05T02:45:47.513Z,20.63
2022-10-05T02:48:36.002Z,21.13
2022-10-05T02:51:22.397Z,21.15
2022-10-05T02:54:09.127Z,20.83
2022-10-05T02:56:49.444Z,24.80
2022-10-05T02:59:30.210Z,21.65
2022-10-05T03:02:16.541Z,29.10
2022-10-05T03:05:00.222Z,28.38
2022-10-05T03:07:41.462Z,28.23
2022-10-05T03:10:26.815Z,30.50
2022-10-05T03:13:07.693Z,27.73
2022-10-05T03:15:51.801Z,27.13
2022-10-05T03:18:41.523Z,29.30
2022-10-05T03:21:30.461Z,18.17
2022-10-05T03:24:35.574Z,19.27
2022-10-05T03:27:24.497Z,21.23
2022-10-05T03:30:05.917Z,21.33
2022-10-05T03:32:52.427Z,20.52
2022-10-05T03:38:12.314Z,18.67
2022-10-05T03:40:51.933Z,21.90
2022-10-05T03:43:48.663Z,16.85
2022-10-05T03:46:33.412Z,19.90
2022-10-05T03:49:15.587Z,22.42
2022-10-05T03:51:53.270Z,26.83
2022-10-05T03:54:34.387Z,22.65
2022-10-05T03:57:13.604Z,17.30
2022-10-05T03:59:57.777Z,18.02
2022-10-05T04:02:35.491Z,21.88
2022-10-05T04:05:18.574Z,22.25
2022-10-05T04:07:57.759Z,20.73
2022-10-05T04:10:41.051Z,20.33
2022-10-05T04:13:25.258Z,18.50
2022-10-05T04:16:05.429Z,22.10
2022-10-05T04:18:44.889Z,23.05
2022-10-05T04:21:23.896Z,16.30
2022-10-05T04:24:05.743Z,18.92
2022-10-05T04:26:42.014Z,22.40
2022-10-05T04:29:24.403Z,22.65
2022-10-05T04:32:13.246Z,24.95
2022-10-05T04:35:00.866Z,18.42
2022-10-05T04:37:46.501Z,21.60
2022-10-05T04:40:37.535Z,20.38
2022-10-05T04:43:16.804Z,18.92
2022-10-05T04:46:08.493Z,21.98
2022-10-05T04:49:10.060Z,20.35
2022-10-05T04:51:52.831Z,22.70
2022-10-05T04:54:41.379Z,21.83
2022-10-05T04:57:19.720Z,18.45
2022-10-05T05:00:05.817Z,20.92
2022-10-05T05:02:53.952Z,27.48
2022-10-05T05:06:04.988Z,18.88
2022-10-05T05:09:02.737Z,19.52
2022-10-05T05:11:49.826Z,19.13
2022-10-05T05:14:48.105Z,14.68
2022-10-05T05:17:35.011Z,18.30
2022-10-05T05:20:21.088Z,19.08
2022-10-05T05:23:07.263Z,21.65
2022-10-05T05:25:52.296Z,18.38
2022-10-05T05:28:37.209Z,23.27
2022-10-05T05:31:21.491Z,16.67
2022-10-05T05:34:03.373Z,21.70
2022-10-05T05:36:50.394Z,25.55
2022-10-05T05:39:29.896Z,23.00
2022-10-05T05:42:21.454Z,25.63
2022-10-05T05:44:58.925Z,19.17
2022-10-05T05:47:37.971Z,23.33
2022-10-05T05:50:32.593Z,18.70
2022-10-05T05:53:17.191Z,22.13
2022-10-05T05:56:19.538Z,19.17
2022-10-05T05:58:57.136Z,15.52
2022-10-05T06:01:35.672Z,19.77
2022-10-05T06:04:24.014Z,23.98
2022-10-05T06:09:39.238Z,19.25
2022-10-05T06:12:24.235Z,20.20
2022-10-05T06:15:01.861Z,17.45
2022-10-05T06:17:40.369Z,22.35
2022-10-05T06:20:23.706Z,21.98
2022-10-05T06:23:03.248Z,17.48
2022-10-05T06:25:46.139Z,21.45
2022-10-05T06:28:21.598Z,22.27
2022-10-05T06:31:11.647Z,18.33
2022-10-05T06:33:52.522Z,19.85
2022-10-05T06:36:45.184Z,14.93
2022-10-05T06:40:00.067Z,16.60
2022-10-05T06:43:14.814Z,17.48
2022-10-05T06:46:24.257Z,22.27
2022-10-05T06:49:24.711Z,13.77
2022-10-05T06:52:26.748Z,20.40
2022-10-05T06:55:17.435Z,25.65
2022-10-05T06:58:06.764Z,13.23
2022-10-05T07:00:45.827Z,15.68
2022-10-05T07:03:29.223Z,13.43
2022-10-05T07:06:21.796Z,14.68
2022-10-05T07:09:19.869Z,21.13
2022-10-05T07:12:08.134Z,11.57
2022-10-05T07:15:03.944Z,10.52
2022-10-05T07:17:51.750Z,16.25
2022-10-05T07:20:34.676Z,14.25
2022-10-05T07:23:28.925Z,12.73
2022-10-05T07:26:08.763Z,16.17
2022-10-05T07:28:49.460Z,16.55
2022-10-05T07:31:34.789Z,13.70
2022-10-05T07:34:17.013Z,14.13
2022-10-05T07:37:14.832Z,14.35
2022-10-05T07:40:01.454Z,13.85
2022-10-05T07:42:52.280Z,14.68
2022-10-05T07:45:35.228Z,17.08
2022-10-05T07:48:20.764Z,17.83
2022-10-05T07:51:04.974Z,15.75
2022-10-05T07:53:44.550Z,12.20
2022-10-05T07:56:27.364Z,13.50
2022-10-05T07:59:06.992Z,13.27
2022-10-05T08:01:48.049Z,13.35
2022-10-05T08:04:25.965Z,15.30
2022-10-05T08:07:07.135Z,14.32
2022-10-05T08:09:47.230Z,13.63
2022-10-05T08:12:26.299Z,14.40
2022-10-05T08:15:04.955Z,14.82
2022-10-05T08:17:50.458Z,16.27
2022-10-05T08:20:41.792Z,13.98
2022-10-05T08:23:23.896Z,13.68
2022-10-05T08:26:22.786Z,13.68
2022-10-05T08:29:12.822Z,11.73
2022-10-05T08:31:50.758Z,11.77
2022-10-05T08:34:32.265Z,17.65
2022-10-05T08:37:12.579Z,11.63
2022-10-05T08:40:05.666Z,18.55
2022-10-05T08:43:02.245Z,13.82
2022-10-05T08:46:20.270Z,14.20
2022-10-05T08:49:23.038Z,13.48
2022-10-05T08:52:29.272Z,15.30
2022-10-05T08:55:47.634Z,15.50
2022-10-05T08:59:13.034Z,13.35
2022-10-05T09:02:07.592Z,21.42
2022-10-05T09:05:19.757Z,15.65
2022-10-05T09:08:21.170Z,12.93
2022-10-05T09:11:15.186Z,14.40
2022-10-05T09:17:17.834Z,14.55
2022-10-05T09:20:16.035Z,15.98
2022-10-05T09:23:19.116Z,11.63
2022-10-05T09:26:01.102Z,12.05
2022-10-05T09:28:45.076Z,25.33
2022-10-05T09:31:52.400Z,19.42
2022-10-05T09:35:29.371Z,16.83
2022-10-05T09:38:20.649Z,13.18
2022-10-05T09:41:39.968Z,16.95
2022-10-05T09:44:37.461Z,15.40
2022-10-05T09:47:50.805Z,11.88
2022-10-05T09:51:03.979Z,15.60
2022-10-05T09:54:19.857Z,17.88
2022-10-05T09:57:18.154Z,14.38
2022-10-05T10:00:16.646Z,14.13
2022-10-05T10:03:14.929Z,14.15
2022-10-05T10:06:20.406Z,12.02
2022-10-05T10:09:15.980Z,19.80
2022-10-05T10:12:09.772Z,12.27
2022-10-05T10:15:27.314Z,16.73
2022-10-05T10:18:29.802Z,10.57
2022-10-05T10:21:42.333Z,20.00
2022-10-05T10:24:39.865Z,18.15
2022-10-05T10:27:36.115Z,12.55
2022-10-05T10:30:56.090Z,14.27
2022-10-05T10:33:56.601Z,11.95
2022-10-05T10:36:51.428Z,12.38
2022-10-05T10:39:40.561Z,14.32
2022-10-05T10:42:37.000Z,13.50
2022-10-05T10:45:28.824Z,11.95
2022-10-05T10:48:05.193Z,15.63
2022-10-05T10:51:11.971Z,12.90
2022-10-05T10:54:15.996Z,14.73
2022-10-05T10:57:04.564Z,11.70
2022-10-05T11:00:23.042Z,9.93
2022-10-05T11:03:11.257Z,13.02
2022-10-05T11:06:31.477Z,8.63
2022-10-05T11:09:26.140Z,18.67
2022-10-05T11:12:22.345Z,12.80
2022-10-05T11:15:34.118Z,13.32
2022-10-05T11:18:16.396Z,8.65
2022-10-05T11:21:19.629Z,9.45
2022-10-05T11:24:31.462Z,11.73
2022-10-05T11:27:25.028Z,10.18
2022-10-05T11:30:35.565Z,12.15
2022-10-05T11:33:44.467Z,10.98
2022-10-05T11:36:46.906Z,9.60
2022-10-05T11:39:39.435Z,23.55
2022-10-05T11:42:43.356Z,14.20
2022-10-05T11:45:36.294Z,14.00
2022-10-05T11:48:36.703Z,12.05
2022-10-05T11:51:44.771Z,9.50
2022-10-05T11:55:09.416Z,8.68
2022-10-05T11:57:55.379Z,13.13
2022-10-05T12:00:42.356Z,14.30
2022-10-05T12:03:36.778Z,10.82
2022-10-05T12:06:26.911Z,6.97
2022-10-05T12:09:30.405Z,11.75
2022-10-05T12:12:16.046Z,10.18
2022-10-05T12:15:00.630Z,9.45
2022-10-05T12:17:43.360Z,15.30
2022-10-05T12:20:22.163Z,8.55
2022-10-05T12:23:04.399Z,16.17
2022-10-05T12:25:44.298Z,11.48
2022-10-05T12:28:22.442Z,6.70
2022-10-05T12:31:15.452Z,8.80
2022-10-05T12:33:58.599Z,6.45
2022-10-05T12:37:03.098Z,8.38
2022-10-05T12:39:45.834Z,9.38
2022-10-05T12:42:31.660Z,7.57
2022-10-05T12:45:32.580Z,10.68
2022-10-05T12:48:20.949Z,8.13
2022-10-05T12:51:01.544Z,6.55
2022-10-05T12:53:49.411Z,9.55
2022-10-05T12:56:33.306Z,4.95
2022-10-05T12:59:19.316Z,5.72
2022-10-05T13:02:00.419Z,5.68
2022-10-05T13:04:42.907Z,7.15
2022-10-05T13:07:41.209Z,7.68
2022-10-05T13:10:29.431Z,5.85
2022-10-05T13:13:17.895Z,5.30
2022-10-05T13:16:06.398Z,6.60
2022-10-05T13:18:55.653Z,7.05
2022-10-05T13:21:41.172Z,8.82
2022-10-05T13:24:23.359Z,8.02
2022-10-05T13:27:08.641Z,9.30
2022-10-05T13:29:52.305Z,6.55
2022-10-05T13:32:33.585Z,8.27
2022-10-05T13:35:39.164Z,6.18
2022-10-05T13:38:30.499Z,7.20
2022-10-05T13:41:15.498Z,46.03
2022-10-05T13:44:00.292Z,16.45
2022-10-05T13:46:39.715Z,5.00
2022-10-05T13:49:29.589Z,5.05
2022-10-05T13:52:18.100Z,4.90
2022-10-05T13:54:59.982Z,6.45
2022-10-05T13:57:47.686Z,10.55
2022-10-05T14:00:26.597Z,10.13
2022-10-05T14:03:02.310Z,14.65
2022-10-05T14:05:38.137Z,11.23
2022-10-05T14:08:18.570Z,8.88
2022-10-05T14:10:53.948Z,6.60
2022-10-05T14:13:35.971Z,6.65
2022-10-05T14:16:21.790Z,10.25
2022-10-05T14:18:58.801Z,9.23
2022-10-05T14:21:33.761Z,11.43
2022-10-05T14:24:43.082Z,30.77
2022-10-05T14:27:23.556Z,12.40
2022-10-05T14:30:01.283Z,11.93
2022-10-05T14:32:51.946Z,18.30
2022-10-05T14:35:27.713Z,15.35
2022-10-05T14:38:09.160Z,16.25
2022-10-05T14:40:45.502Z,11.35
2022-10-05T14:43:24.292Z,11.23
2022-10-05T14:46:01.580Z,22.38
2022-10-05T14:48:42.972Z,10.80
2022-10-05T14:51:32.149Z,5.90
2022-10-05T14:54:27.910Z,7.32
2022-10-05T14:57:25.390Z,14.25
2022-10-05T15:00:12.742Z,11.60
2022-10-05T15:03:22.790Z,9.45
2022-10-05T15:06:00.429Z,15.48
2022-10-05T15:09:00.847Z,9.50
2022-10-05T15:11:43.570Z,8.60
2022-10-05T15:14:21.540Z,10.80
2022-10-05T15:16:59.056Z,10.48
2022-10-05T15:19:45.028Z,9.93
2022-10-05T15:22:33.239Z,9.00
2022-10-05T15:25:19.592Z,8.07
2022-10-05T15:28:00.956Z,11.55
2022-10-05T15:30:39.599Z,7.55
2022-10-05T15:33:19.549Z,13.88
2022-10-05T15:36:20.164Z,8.43
2022-10-05T15:39:03.981Z,11.35
2022-10-05T15:41:53.074Z,11.95
2022-10-05T15:44:40.347Z,12.32
2022-10-05T15:47:20.436Z,12.25
2022-10-05T15:50:03.577Z,12.20
2022-10-05T15:52:44.628Z,10.65
2022-10-05T15:55:30.107Z,16.52
2022-10-05T15:58:32.426Z,16.35
2022-10-05T16:01:11.653Z,9.45
2022-10-05T16:03:51.540Z,11.63
2022-10-05T16:06:56.828Z,13.65
2022-10-05T16:09:45.189Z,11.27
2022-10-05T16:12:26.504Z,12.10
2022-10-05T16:15:16.974Z,12.10
2022-10-05T16:18:07.558Z,12.35
2022-10-05T16:20:51.365Z,14.48
2022-10-05T16:23:35.592Z,13.75
2022-10-05T16:26:19.735Z,17.23
2022-10-05T16:29:04.194Z,14.55
2022-10-05T16:31:47.284Z,15.43
2022-10-05T16:34:32.854Z,22.10
2022-10-05T16:37:14.211Z,14.00
2022-10-05T16:39:58.526Z,13.88
2022-10-05T16:42:46.526Z,8.73
2022-10-05T16:45:44.689Z,11.05
2022-10-05T16:48:26.149Z,16.90
2022-10-05T16:51:14.083Z,12.82
2022-10-05T16:54:01.807Z,13.23
2022-10-05T16:56:42.682Z,13.40
2022-10-05T16:59:43.333Z,17.58
2022-10-05T17:02:30.402Z,12.68
2022-10-05T17:05:21.232Z,37.13
2022-10-05T17:08:10.340Z,12.25
2022-10-05T17:10:58.363Z,14.00
2022-10-05T17:14:06.694Z,12.10
2022-10-05T17:16:54.670Z,29.67
2022-10-05T17:19:46.787Z,11.90
2022-10-05T17:22:27.600Z,10.50
2022-10-05T17:25:11.671Z,12.02
2022-10-05T17:27:54.135Z,15.45
2022-10-05T17:30:48.584Z,19.08
2022-10-05T17:33:29.197Z,18.55
2022-10-05T17:36:38.732Z,13.82
2022-10-05T17:39:16.439Z,15.27
2022-10-05T17:41:50.434Z,13.10
2022-10-05T17:44:28.326Z,12.05
2022-10-05T17:47:04.171Z,12.43
2022-10-05T17:50:10.056Z,13.75
2022-10-05T17:53:02.585Z,10.23
2022-10-05T17:55:48.347Z,11.23
2022-10-05T17:59:01.188Z,13.38
2022-10-05T18:01:38.316Z,34.30
2022-10-05T18:04:34.575Z,13.48
2022-10-05T18:07:23.941Z,16.27
2022-10-05T18:10:25.936Z,20.85
2022-10-05T18:13:45.583Z,13.35
2022-10-05T18:16:56.267Z,16.05
2022-10-05T18:19:32.552Z,9.15
2022-10-05T18:22:27.942Z,14.13
2022-10-05T18:25:10.582Z,13.05
2022-10-05T18:28:07.096Z,14.57
2022-10-05T18:30:59.469Z,17.48
2022-10-05T18:33:50.726Z,12.32
2022-10-05T18:36:40.634Z,13.15
2022-10-05T18:39:24.486Z,15.52
2022-10-05T18:44:47.541Z,22.58
2022-10-05T18:47:31.437Z,42.80
2022-10-05T18:50:18.815Z,14.55
2022-10-05T18:53:03.480Z,13.20
2022-10-05T18:55:43.445Z,16.58
2022-10-05T18:58:26.135Z,19.50
2022-10-05T19:01:33.402Z,16.00
2022-10-05T19:04:22.434Z,15.98
2022-10-05T19:07:07.346Z,17.48
2022-10-05T19:09:58.598Z,13.82
2022-10-05T19:12:44.394Z,16.17
2022-10-05T19:15:28.930Z,16.75
2022-10-05T19:18:26.445Z,19.90
2022-10-05T19:21:07.605Z,12.50
2022-10-05T19:23:56.722Z,15.07
2022-10-05T19:26:53.945Z,14.48
2022-10-05T19:29:41.349Z,13.80
2022-10-05T19:32:27.831Z,13.48
2022-10-05T19:35:19.909Z,18.08
2022-10-05T19:38:15.309Z,12.52
2022-10-05T19:40:59.949Z,14.75
2022-10-05T19:43:50.776Z,15.05
2022-10-05T19:46:35.785Z,18.95
2022-10-05T19:49:12.179Z,18.42
2022-10-05T19:51:49.913Z,12.43
2022-10-05T19:54:25.317Z,14.32
2022-10-05T19:57:03.538Z,16.30
2022-10-05T19:59:40.627Z,35.95
2022-10-05T20:02:17.179Z,20.92
2022-10-05T20:04:55.167Z,12.98
2022-10-05T20:07:28.821Z,14.77
2022-10-05T20:13:00.361Z,18.70
2022-10-05T20:15:52.873Z,15.25
2022-10-05T20:18:58.640Z,18.17
2022-10-05T20:21:47.628Z,19.27
2022-10-05T20:24:23.720Z,15.18
2022-10-05T20:27:13.864Z,17.45
2022-10-05T20:29:49.541Z,18.23
2022-10-05T20:32:26.381Z,15.23
2022-10-05T20:35:06.944Z,17.65
2022-10-05T20:37:43.083Z,11.10
2022-10-05T20:40:17.810Z,12.48
2022-10-05T20:43:00.468Z,12.45
2022-10-05T20:45:33.998Z,14.52
2022-10-05T20:48:07.677Z,14.02
2022-10-05T20:50:45.068Z,13.05
2022-10-05T20:53:20.274Z,10.50
2022-10-05T20:56:04.716Z,15.23
2022-10-05T20:58:38.416Z,19.60
2022-10-05T21:01:18.482Z,15.32
2022-10-05T21:03:52.285Z,14.50
2022-10-05T21:09:03.850Z,13.48
2022-10-05T21:11:37.336Z,15.18
2022-10-05T21:14:11.660Z,18.73
2022-10-05T21:16:51.373Z,13.05
2022-10-05T21:19:25.023Z,16.20
2022-10-05T21:24:35.519Z,12.82
2022-10-05T21:27:11.408Z,15.02
2022-10-05T21:29:45.524Z,15.40
2022-10-05T21:32:19.006Z,13.38
2022-10-05T21:34:54.777Z,16.40
2022-10-05T21:37:28.251Z,10.48
2022-10-05T21:40:03.208Z,11.95
2022-10-05T21:42:36.762Z,15.23
2022-10-05T21:45:11.510Z,12.80
2022-10-05T21:47:45.018Z,13.52
2022-10-05T21:50:18.658Z,13.93
2022-10-05T21:55:39.208Z,11.90
2022-10-05T21:58:14.598Z,12.35
2022-10-05T22:00:48.264Z,13.52
2022-10-05T22:05:58.046Z,9.60
2022-10-05T22:11:14.087Z,11.52
2022-10-05T22:13:52.310Z,12.00
2022-10-05T22:16:31.573Z,10.32
2022-10-05T22:19:06.527Z,8.00
2022-10-05T22:21:41.952Z,12.23
2022-10-05T22:24:15.796Z,8.77
2022-10-05T22:26:51.983Z,13.05
2022-10-05T22:29:25.610Z,9.60
2022-10-05T22:34:35.067Z,9.48
2022-10-05T22:37:13.124Z,9.82
2022-10-05T22:39:46.727Z,11.43
2022-10-05T22:42:21.688Z,12.07
2022-10-05T22:44:55.242Z,11.02
2022-10-05T22:47:28.716Z,12.18
2022-10-05T22:50:05.290Z,9.98
2022-10-05T22:52:42.536Z,9.45
2022-10-05T22:55:18.884Z,11.02
2022-10-05T22:57:53.946Z,9.35
2022-10-05T23:00:40.335Z,11.65
2022-10-05T23:03:14.195Z,11.88
2022-10-05T23:05:47.679Z,11.35
2022-10-05T23:08:21.257Z,10.85
2022-10-05T23:10:54.716Z,16.52
2022-10-05T23:13:29.836Z,8.50
2022-10-05T23:16:07.952Z,11.85
2022-10-05T23:18:42.016Z,11.35
2022-10-05T23:21:15.808Z,12.45
2022-10-05T23:23:51.346Z,9.98
2022-10-05T23:26:26.367Z,10.23
2022-10-05T23:29:01.280Z,9.05
2022-10-05T23:31:37.001Z,11.02
2022-10-05T23:34:10.475Z,12.82
2022-10-05T23:36:43.933Z,10.65
2022-10-05T23:39:17.368Z,9.70
2022-10-05T23:41:50.843Z,10.98
2022-10-05T23:44:25.764Z,13.88
2022-10-05T23:46:59.221Z,11.25
2022-10-05T23:49:32.680Z,11.80
2022-10-05T23:52:06.145Z,10.50
2022-10-05T23:54:39.614Z,12.52
2022-10-05T23:57:17.429Z,11.23
2022-10-05T23:59:52.428Z,9.95
